Time,TemperatureF,DewpointF,PressureIn,WindDirection,WindDirectionDegrees,WindSpeedMPH,WindSpeedGustMPH,Humidity,HourlyPrecipIn,Conditions,Clouds,dailyrainin,SoftwareType,DateUTC
2013-10-06 00:11:00,56.4,56.0,29.96,East,86,2.0,9.0,97,0.00,,,0.00,weatherlink.com 1.10,2013-10-06 04:11:00,
2013-10-06 00:26:00,56.3,56.0,29.96,East,96,2.0,7.0,97,0.00,,,0.00,weatherlink.com 1.10,2013-10-06 04:26:00,
2013-10-06 00:41:00,56.3,56.0,29.96,ENE,67,2.0,6.0,97,0.00,,,0.00,weatherlink.com 1.10,2013-10-06 04:41:00,
2013-10-06 00:56:00,56.2,55.0,29.95,ENE,76,1.0,7.0,97,0.00,,,0.00,weatherlink.com 1.10,2013-10-06 04:56:00,
2013-10-06 01:11:00,56.1,55.0,29.96,ENE,59,3.0,5.0,97,0.00,,,0.00,weatherlink.com 1.10,2013-10-06 05:11:00,
2013-10-06 01:26:00,56.0,55.0,29.95,East,86,2.0,7.0,97,0.00,,,0.00,weatherlink.com 1.10,2013-10-06 05:26:00,
2013-10-06 01:41:00,55.9,55.0,29.94,East,86,1.0,6.0,97,0.00,,,0.00,weatherlink.com 1.10,2013-10-06 05:41:00,
2013-10-06 01:56:00,55.9,55.0,29.94,East,83,3.0,8.0,98,0.00,,,0.00,weatherlink.com 1.10,2013-10-06 05:56:00,
2013-10-06 02:11:00,56.0,56.0,29.94,East,84,1.0,6.0,98,0.00,,,0.00,weatherlink.com 1.10,2013-10-06 06:11:00,
2013-10-06 02:26:00,55.9,55.0,29.94,ENE,73,2.0,7.0,98,0.00,,,0.00,weatherlink.com 1.10,2013-10-06 06:26:00,
2013-10-06 02:41:00,55.9,55.0,29.93,East,84,1.0,6.0,98,0.00,,,0.00,weatherlink.com 1.10,2013-10-06 06:41:00,
2013-10-06 02:56:00,55.9,55.0,29.93,ENE,68,7.0,7.0,98,0.00,,,0.00,weatherlink.com 1.10,2013-10-06 06:56:00,
2013-10-06 03:11:00,55.9,55.0,29.93,East,80,2.0,5.0,98,0.00,,,0.00,weatherlink.com 1.10,2013-10-06 07:11:00,
2013-10-06 03:26:00,55.7,55.0,29.93,ENE,69,1.0,3.0,97,0.00,,,0.00,weatherlink.com 1.10,2013-10-06 07:26:00,
2013-10-06 03:41:00,55.5,55.0,29.92,East,87,1.0,3.0,97,0.00,,,0.00,weatherlink.com 1.10,2013-10-06 07:41:00,
2013-10-06 03:56:00,55.4,55.0,29.92,ENE,72,1.0,7.0,98,0.00,,,0.00,weatherlink.com 1.10,2013-10-06 07:56:00,
2013-10-06 04:11:00,55.5,55.0,29.92,ENE,65,1.0,6.0,98,0.00,,,0.00,weatherlink.com 1.10,2013-10-06 08:11:00,
2013-10-06 04:26:00,55.4,55.0,29.92,East,90,2.0,3.0,98,0.00,,,0.00,weatherlink.com 1.10,2013-10-06 08:26:00,
2013-10-06 04:41:00,55.6,55.0,29.91,ENE,58,1.0,5.0,98,0.00,,,0.00,weatherlink.com 1.10,2013-10-06 08:41:00,
2013-10-06 04:56:00,55.7,55.0,29.91,East,81,2.0,6.0,98,0.00,,,0.00,weatherlink.com 1.10,2013-10-06 08:56:00,
2013-10-06 05:11:00,55.6,55.0,29.91,East,86,1.0,5.0,98,0.00,,,0.00,weatherlink.com 1.10,2013-10-06 09:11:00,
2013-10-06 05:26:00,55.3,55.0,29.91,East,84,1.0,5.0,98,0.00,,,0.00,weatherlink.com 1.10,2013-10-06 09:26:00,
2013-10-06 05:41:00,55.3,55.0,29.92,East,80,1.0,8.0,98,0.00,,,0.00,weatherlink.com 1.10,2013-10-06 09:41:00,
2013-10-06 05:56:00,55.1,55.0,29.92,NE,56,1.0,3.0,98,0.00,,,0.00,weatherlink.com 1.10,2013-10-06 09:56:00,
2013-10-06 06:11:00,55.0,55.0,29.92,East,92,1.0,5.0,98,0.00,,,0.00,weatherlink.com 1.10,2013-10-06 10:11:00,
2013-10-06 06:26:00,54.9,54.0,29.92,East,96,1.0,9.0,98,0.00,,,0.00,weatherlink.com 1.10,2013-10-06 10:26:00,
2013-10-06 06:41:00,54.7,54.0,29.92,ESE,106,2.0,7.0,98,0.00,,,0.00,weatherlink.com 1.10,2013-10-06 10:41:00,
2013-10-06 06:56:00,54.5,54.0,29.92,East,96,1.0,7.0,98,0.00,,,0.00,weatherlink.com 1.10,2013-10-06 10:56:00,
2013-10-06 07:11:00,54.3,54.0,29.92,ENE,75,1.0,3.0,98,0.00,,,0.00,weatherlink.com 1.10,2013-10-06 11:11:00,
2013-10-06 07:26:00,54.1,54.0,29.92,ENE,69,0.0,5.0,98,0.00,,,0.00,weatherlink.com 1.10,2013-10-06 11:26:00,
2013-10-06 07:41:00,54.0,54.0,29.92,ENE,78,0.0,5.0,98,0.00,,,0.00,weatherlink.com 1.10,2013-10-06 11:41:00,
2013-10-06 07:56:00,54.5,54.0,29.93,ENE,70,0.0,6.0,98,0.00,,,0.00,weatherlink.com 1.10,2013-10-06 11:56:00,
2013-10-06 08:11:00,54.9,54.0,29.92,ENE,64,5.0,7.0,98,0.00,,,0.00,weatherlink.com 1.10,2013-10-06 12:11:00,
2013-10-06 08:26:00,55.2,55.0,29.92,ENE,71,1.0,6.0,98,0.00,,,0.00,weatherlink.com 1.10,2013-10-06 12:26:00,
2013-10-06 08:41:00,55.8,55.0,29.93,ENE,76,5.0,7.0,98,0.00,,,0.00,weatherlink.com 1.10,2013-10-06 12:41:00,
2013-10-06 08:56:00,56.1,56.0,29.92,NE,44,5.0,6.0,98,0.00,,,0.00,weatherlink.com 1.10,2013-10-06 12:56:00,
2013-10-06 09:11:00,56.5,56.0,29.92,ENE,78,1.0,7.0,98,0.00,,,0.00,weatherlink.com 1.10,2013-10-06 13:11:00,
2013-10-06 09:26:00,57.2,57.0,29.92,ENE,57,2.0,8.0,98,0.00,,,0.00,weatherlink.com 1.10,2013-10-06 13:26:00,
2013-10-06 09:41:00,58.0,58.0,29.92,SE,124,4.0,8.0,98,0.00,,,0.00,weatherlink.com 1.10,2013-10-06 13:41:00,
2013-10-06 09:56:00,58.6,58.0,29.92,NE,53,2.0,13.0,98,0.00,,,0.00,weatherlink.com 1.10,2013-10-06 13:56:00,
2013-10-06 10:12:00,59.7,59.0,29.91,ENE,65,1.0,11.0,97,0.00,,,0.00,weatherlink.com 1.10,2013-10-06 14:12:00,
2013-10-06 10:27:00,60.3,58.0,29.91,ESE,107,2.0,14.0,93,0.00,,,0.00,weatherlink.com 1.10,2013-10-06 14:27:00,
2013-10-06 10:42:00,61.7,59.0,29.91,NNE,27,1.0,10.0,89,0.00,,,0.00,weatherlink.com 1.10,2013-10-06 14:42:00,
2013-10-06 10:57:00,62.4,58.0,29.91,NE,54,7.0,12.0,86,0.00,,,0.00,weatherlink.com 1.10,2013-10-06 14:57:00,
2013-10-06 11:12:00,62.4,57.0,29.91,ENE,63,5.0,11.0,83,0.00,,,0.00,weatherlink.com 1.10,2013-10-06 15:12:00,
2013-10-06 11:27:00,59.8,56.0,29.90,East,86,3.0,9.0,87,0.00,,,0.00,weatherlink.com 1.10,2013-10-06 15:27:00,
2013-10-06 11:42:00,59.1,56.0,29.90,ENE,75,2.0,9.0,89,0.00,,,0.00,weatherlink.com 1.10,2013-10-06 15:42:00,
2013-10-06 11:57:00,60.0,57.0,29.90,East,82,8.0,11.0,89,0.00,,,0.00,weatherlink.com 1.10,2013-10-06 15:57:00,
2013-10-06 12:12:00,61.4,57.0,29.89,ENE,75,4.0,10.0,86,0.00,,,0.00,weatherlink.com 1.10,2013-10-06 16:12:00,
2013-10-06 12:27:00,64.4,59.0,29.89,ENE,63,5.0,9.0,83,0.00,,,0.00,weatherlink.com 1.10,2013-10-06 16:27:00,
2013-10-06 12:42:00,65.2,59.0,29.89,ENE,60,2.0,12.0,79,0.00,,,0.00,weatherlink.com 1.10,2013-10-06 16:42:00,
2013-10-06 12:57:00,65.1,58.0,29.88,NE,49,5.0,11.0,78,0.00,,,0.00,weatherlink.com 1.10,2013-10-06 16:57:00,
2013-10-06 13:12:00,64.8,59.0,29.88,ENE,69,3.0,10.0,80,0.00,,,0.00,weatherlink.com 1.10,2013-10-06 17:12:00,
2013-10-06 13:27:00,64.0,58.0,29.88,NE,54,1.0,11.0,81,0.00,,,0.00,weatherlink.com 1.10,2013-10-06 17:27:00,
2013-10-06 13:42:00,64.1,59.0,29.87,ESE,123,4.0,7.0,82,0.00,,,0.00,weatherlink.com 1.10,2013-10-06 17:42:00,
2013-10-06 13:57:00,64.7,59.0,29.86,ENE,59,2.0,7.0,83,0.00,,,0.00,weatherlink.com 1.10,2013-10-06 17:57:00,
2013-10-06 14:12:00,64.9,59.0,29.85,ENE,57,3.0,10.0,81,0.00,,,0.00,weatherlink.com 1.10,2013-10-06 18:12:00,
2013-10-06 14:27:00,65.2,59.0,29.85,NE,52,3.0,9.0,81,0.00,,,0.00,weatherlink.com 1.10,2013-10-06 18:27:00,
2013-10-06 14:42:00,63.4,58.0,29.85,East,86,3.0,11.0,83,0.00,,,0.00,weatherlink.com 1.10,2013-10-06 18:42:00,
2013-10-06 14:57:00,63.6,59.0,29.85,ENE,77,3.0,11.0,84,0.00,,,0.00,weatherlink.com 1.10,2013-10-06 18:57:00,
2013-10-06 15:12:00,61.6,57.0,29.85,ENE,67,2.0,8.0,85,0.00,,,0.00,weatherlink.com 1.10,2013-10-06 19:12:00,
2013-10-06 15:27:00,61.3,57.0,29.85,East,83,3.0,7.0,86,0.00,,,0.00,weatherlink.com 1.10,2013-10-06 19:27:00,
2013-10-06 15:42:00,61.5,58.0,29.85,ENE,65,2.0,9.0,87,0.00,,,0.00,weatherlink.com 1.10,2013-10-06 19:42:00,
2013-10-06 15:57:00,62.1,58.0,29.84,NE,49,1.0,6.0,87,0.00,,,0.00,weatherlink.com 1.10,2013-10-06 19:57:00,
2013-10-06 16:12:00,61.7,58.0,29.84,ENE,74,2.0,10.0,86,0.00,,,0.00,weatherlink.com 1.10,2013-10-06 20:12:00,
2013-10-06 16:27:00,61.4,57.0,29.83,ENE,76,4.0,9.0,86,0.00,,,0.00,weatherlink.com 1.10,2013-10-06 20:27:00,
2013-10-06 16:42:00,60.9,57.0,29.83,NE,50,7.0,9.0,86,0.00,,,0.00,weatherlink.com 1.10,2013-10-06 20:42:00,
2013-10-06 16:57:00,60.3,57.0,29.83,ENE,63,2.0,11.0,88,0.00,,,0.00,weatherlink.com 1.10,2013-10-06 20:57:00,
2013-10-06 17:12:00,59.9,57.0,29.83,East,84,2.0,9.0,89,0.00,,,0.00,weatherlink.com 1.10,2013-10-06 21:12:00,
2013-10-06 17:27:00,59.7,57.0,29.83,ENE,70,0.0,9.0,91,0.00,,,0.00,weatherlink.com 1.10,2013-10-06 21:27:00,
2013-10-06 17:42:00,59.5,57.0,29.83,NNE,32,3.0,6.0,91,0.00,,,0.00,weatherlink.com 1.10,2013-10-06 21:42:00,
2013-10-06 17:57:00,58.7,56.0,29.83,NE,50,4.0,8.0,92,0.00,,,0.00,weatherlink.com 1.10,2013-10-06 21:57:00,
2013-10-06 18:12:00,58.4,56.0,29.84,East,79,1.0,7.0,93,0.00,,,0.00,weatherlink.com 1.10,2013-10-06 22:12:00,
2013-10-06 18:27:00,58.3,57.0,29.83,East,82,2.0,10.0,94,0.00,,,0.00,weatherlink.com 1.10,2013-10-06 22:27:00,
2013-10-06 18:42:00,58.1,56.0,29.84,NE,43,0.0,8.0,94,0.00,,,0.00,weatherlink.com 1.10,2013-10-06 22:42:00,
2013-10-06 18:57:00,57.8,56.0,29.83,ENE,57,1.0,8.0,94,0.00,,,0.00,weatherlink.com 1.10,2013-10-06 22:57:00,
2013-10-06 19:12:00,57.6,56.0,29.83,ENE,71,2.0,8.0,94,0.00,,,0.00,weatherlink.com 1.10,2013-10-06 23:12:00,
2013-10-06 19:27:00,57.3,56.0,29.82,NE,55,1.0,10.0,95,0.00,,,0.00,weatherlink.com 1.10,2013-10-06 23:27:00,
2013-10-06 19:42:00,57.1,56.0,29.82,East,90,3.0,14.0,95,0.00,,,0.00,weatherlink.com 1.10,2013-10-06 23:42:00,
2013-10-06 19:57:00,57.0,56.0,29.82,ENE,78,3.0,12.0,95,0.00,,,0.00,weatherlink.com 1.10,2013-10-06 23:57:00,
2013-10-06 20:12:00,57.0,56.0,29.81,NE,34,4.0,11.0,96,0.00,,,0.00,weatherlink.com 1.10,2013-10-07 00:12:00,
2013-10-06 20:27:00,56.8,56.0,29.82,NW,309,2.0,10.0,96,0.00,,,0.00,weatherlink.com 1.10,2013-10-07 00:27:00,
2013-10-06 20:42:00,56.7,56.0,29.81,NE,56,2.0,11.0,96,0.00,,,0.00,weatherlink.com 1.10,2013-10-07 00:42:00,
2013-10-06 20:57:00,56.6,56.0,29.80,ENE,59,4.0,16.0,96,0.00,,,0.00,weatherlink.com 1.10,2013-10-07 00:57:00,
2013-10-06 21:12:00,56.5,55.0,29.80,East,97,3.0,11.0,96,0.00,,,0.00,weatherlink.com 1.10,2013-10-07 01:12:00,
2013-10-06 21:27:00,56.3,56.0,29.80,ESE,112,7.0,18.0,97,0.00,,,0.00,weatherlink.com 1.10,2013-10-07 01:27:00,
2013-10-06 21:43:00,56.3,56.0,29.80,NNE,24,2.0,14.0,97,0.00,,,0.00,weatherlink.com 1.10,2013-10-07 01:43:00,
2013-10-06 21:58:00,56.3,56.0,29.80,ENE,75,5.0,18.0,97,0.00,,,0.00,weatherlink.com 1.10,2013-10-07 01:58:00,
2013-10-06 22:13:00,56.3,56.0,29.80,ENE,74,8.0,17.0,97,0.00,,,0.00,weatherlink.com 1.10,2013-10-07 02:13:00,
2013-10-06 22:28:00,56.4,56.0,29.80,ESE,117,5.0,16.0,97,0.00,,,0.00,weatherlink.com 1.10,2013-10-07 02:28:00,
2013-10-06 22:43:00,56.4,56.0,29.80,East,94,10.0,12.0,97,0.00,,,0.00,weatherlink.com 1.10,2013-10-07 02:43:00,
2013-10-06 22:58:00,56.6,56.0,29.80,ENE,66,5.0,12.0,97,0.00,,,0.00,weatherlink.com 1.10,2013-10-07 02:58:00,
2013-10-06 23:13:00,56.6,56.0,29.81,East,96,2.0,8.0,97,0.00,,,0.00,weatherlink.com 1.10,2013-10-07 03:13:00,
2013-10-06 23:28:00,56.6,56.0,29.81,East,87,2.0,9.0,97,0.00,,,0.00,weatherlink.com 1.10,2013-10-07 03:28:00,
2013-10-06 23:43:00,56.6,56.0,29.80,ENE,75,3.0,10.0,97,0.00,,,0.00,weatherlink.com 1.10,2013-10-07 03:43:00,
2013-10-06 23:58:00,56.7,56.0,29.80,ESE,107,1.0,12.0,97,0.00,,,0.00,weatherlink.com 1.10,2013-10-07 03:58:00,